sensor_id;sensor_type;location;lat;lon;timestamp;pressure;altitude;pressure_sealevel;temperature;humidity
72465;BME280;60471;52.150;4.508;2023-05-11T00:01:08;101196.00;;;14.26;79.25
72465;BME280;60471;52.150;4.508;2023-05-11T00:03:34;101185.94;;;14.31;79.52
72465;BME280;60471;52.150;4.508;2023-05-11T00:06:01;101191.72;;;14.24;79.45
72465;BME280;60471;52.150;4.508;2023-05-11T00:08:27;101186.56;;;14.20;79.90
72465;BME280;60471;52.150;4.508;2023-05-11T00:10:53;101180.69;;;14.15;79.87
72465;BME280;60471;52.150;4.508;2023-05-11T00:13:19;101185.03;;;14.16;80.03
72465;BME280;60471;52.150;4.508;2023-05-11T00:15:46;101185.81;;;14.18;79.44
72465;BME280;60471;52.150;4.508;2023-05-11T00:18:12;101186.41;;;14.08;79.99
72465;BME280;60471;52.150;4.508;2023-05-11T00:20:38;101188.66;;;14.00;80.53
72465;BME280;60471;52.150;4.508;2023-05-11T00:23:04;101183.63;;;13.95;80.82
72465;BME280;60471;52.150;4.508;2023-05-11T00:25:31;101185.31;;;13.96;80.89
72465;BME280;60471;52.150;4.508;2023-05-11T00:27:57;101190.44;;;13.99;80.75
72465;BME280;60471;52.150;4.508;2023-05-11T00:30:23;101188.31;;;14.06;80.74
72465;BME280;60471;52.150;4.508;2023-05-11T00:32:49;101186.69;;;14.03;80.64
72465;BME280;60471;52.150;4.508;2023-05-11T00:35:19;101191.25;;;14.01;80.43
72465;BME280;60471;52.150;4.508;2023-05-11T00:37:45;101190.63;;;13.96;80.86
72465;BME280;60471;52.150;4.508;2023-05-11T00:40:11;101188.34;;;13.90;80.84
72465;BME280;60471;52.150;4.508;2023-05-11T00:42:37;101184.13;;;14.02;80.38
72465;BME280;60471;52.150;4.508;2023-05-11T00:45:04;101187.38;;;13.91;80.76
72465;BME280;60471;52.150;4.508;2023-05-11T00:47:31;101193.38;;;13.79;81.16
72465;BME280;60471;52.150;4.508;2023-05-11T00:49:57;101186.69;;;13.87;81.38
72465;BME280;60471;52.150;4.508;2023-05-11T00:52:24;101182.09;;;13.91;81.45
72465;BME280;60471;52.150;4.508;2023-05-11T00:54:50;101183.44;;;13.98;81.25
72465;BME280;60471;52.150;4.508;2023-05-11T00:57:17;101185.59;;;13.91;81.25
72465;BME280;60471;52.150;4.508;2023-05-11T00:59:43;101182.56;;;13.98;81.25
72465;BME280;60471;52.150;4.508;2023-05-11T01:02:09;101181.13;;;14.08;81.02
72465;BME280;60471;52.150;4.508;2023-05-11T01:04:36;101180.34;;;14.06;80.31
72465;BME280;60471;52.150;4.508;2023-05-11T01:07:14;101181.13;;;14.08;80.67
72465;BME280;60471;52.150;4.508;2023-05-11T01:15:39;101180.25;;;14.07;80.70
72465;BME280;60471;52.150;4.508;2023-05-11T01:18:20;101176.66;;;14.08;80.44
72465;BME280;60471;52.150;4.508;2023-05-11T01:20:58;101182.47;;;13.99;80.73
72465;BME280;60471;52.150;4.508;2023-05-11T01:26:32;101181.63;;;13.99;80.52
72465;BME280;60471;52.150;4.508;2023-05-11T01:31:53;101179.16;;;13.96;80.92
72465;BME280;60471;52.150;4.508;2023-05-11T01:34:26;101177.63;;;13.91;81.42
72465;BME280;60471;52.150;4.508;2023-05-11T01:37:05;101172.41;;;13.90;81.71
72465;BME280;60471;52.150;4.508;2023-05-11T01:39:42;101176.19;;;14.02;81.83
72465;BME280;60471;52.150;4.508;2023-05-11T01:42:16;101172.81;;;13.98;81.51
72465;BME280;60471;52.150;4.508;2023-05-11T01:44:49;101188.03;;;14.10;81.46
72465;BME280;60471;52.150;4.508;2023-05-11T01:47:21;101181.13;;;14.08;81.13
72465;BME280;60471;52.150;4.508;2023-05-11T01:49:50;101180.53;;;14.03;81.02
72465;BME280;60471;52.150;4.508;2023-05-11T01:52:20;101185.41;;;13.95;81.49
72465;BME280;60471;52.150;4.508;2023-05-11T01:54:50;101194.66;;;13.87;81.60
72465;BME280;60471;52.150;4.508;2023-05-11T01:57:20;101190.03;;;13.91;81.90
72465;BME280;60471;52.150;4.508;2023-05-11T01:59:49;101192.59;;;13.92;81.32
72465;BME280;60471;52.150;4.508;2023-05-11T02:02:17;101192.09;;;13.86;81.22
72465;BME280;60471;52.150;4.508;2023-05-11T02:04:45;101202.09;;;13.81;81.71
72465;BME280;60471;52.150;4.508;2023-05-11T02:07:13;101199.88;;;13.73;81.83
72465;BME280;60471;52.150;4.508;2023-05-11T02:09:41;101196.91;;;13.79;82.37
72465;BME280;60471;52.150;4.508;2023-05-11T02:12:10;101197.56;;;13.83;81.91
72465;BME280;60471;52.150;4.508;2023-05-11T02:14:39;101206.28;;;13.85;82.16
72465;BME280;60471;52.150;4.508;2023-05-11T02:17:07;101206.91;;;13.90;81.81
72465;BME280;60471;52.150;4.508;2023-05-11T02:19:36;101203.53;;;13.86;81.76
72465;BME280;60471;52.150;4.508;2023-05-11T02:22:05;101208.72;;;13.89;81.44
72465;BME280;60471;52.150;4.508;2023-05-11T02:24:32;101216.13;;;13.83;81.26
72465;BME280;60471;52.150;4.508;2023-05-11T02:27:00;101208.00;;;13.86;81.18
72465;BME280;60471;52.150;4.508;2023-05-11T02:29:26;101212.34;;;13.87;81.38
72465;BME280;60471;52.150;4.508;2023-05-11T02:31:56;101208.34;;;13.96;80.73
72465;BME280;60471;52.150;4.508;2023-05-11T02:34:53;101209.78;;;13.85;80.83
72465;BME280;60471;52.150;4.508;2023-05-11T02:37:26;101216.13;;;13.83;81.33
72465;BME280;60471;52.150;4.508;2023-05-11T02:39:57;101211.69;;;13.83;81.66
72465;BME280;60471;52.150;4.508;2023-05-11T02:42:26;101215.97;;;13.86;81.72
72465;BME280;60471;52.150;4.508;2023-05-11T02:45:07;101211.69;;;13.83;81.55
72465;BME280;60471;52.150;4.508;2023-05-11T02:47:41;101210.56;;;13.87;81.87
72465;BME280;60471;52.150;4.508;2023-05-11T02:50:12;101209.09;;;13.98;81.55
72465;BME280;60471;52.150;4.508;2023-05-11T02:52:44;101213.47;;;13.99;80.90
72465;BME280;60471;52.150;4.508;2023-05-11T02:55:14;101209.47;;;13.91;80.90
72465;BME280;60471;52.150;4.508;2023-05-11T02:57:43;101204.41;;;13.87;81.15
72465;BME280;60471;52.150;4.508;2023-05-11T03:00:10;101216.03;;;13.84;81.02
72465;BME280;60471;52.150;4.508;2023-05-11T03:02:37;101211.25;;;13.75;81.11
72465;BME280;60471;52.150;4.508;2023-05-11T03:05:04;101212.38;;;13.71;81.66
72465;BME280;60471;52.150;4.508;2023-05-11T03:07:32;101206.13;;;13.72;82.09
72465;BME280;60471;52.150;4.508;2023-05-11T03:09:59;101213.81;;;13.61;82.19
72465;BME280;60471;52.150;4.508;2023-05-11T03:12:26;101210.81;;;13.67;82.53
72465;BME280;60471;52.150;4.508;2023-05-11T03:14:57;101208.78;;;13.72;82.03
72465;BME280;60471;52.150;4.508;2023-05-11T03:17:26;101205.63;;;13.81;82.12
72465;BME280;60471;52.150;4.508;2023-05-11T03:19:55;101204.06;;;13.93;81.03
72465;BME280;60471;52.150;4.508;2023-05-11T03:22:23;101201.75;;;13.87;81.16
72465;BME280;60471;52.150;4.508;2023-05-11T03:24:51;101210.16;;;13.79;81.42
72465;BME280;60471;52.150;4.508;2023-05-11T03:27:18;101200.41;;;13.80;82.02
72465;BME280;60471;52.150;4.508;2023-05-11T03:29:45;101204.22;;;13.74;82.22
72465;BME280;60471;52.150;4.508;2023-05-11T03:32:13;101208.69;;;13.74;82.34
72465;BME280;60471;52.150;4.508;2023-05-11T03:34:40;101202.78;;;13.69;82.62
72465;BME280;60471;52.150;4.508;2023-05-11T03:37:09;101206.72;;;13.77;82.90
72465;BME280;60471;52.150;4.508;2023-05-11T03:39:38;101205.53;;;13.83;82.88
72465;BME280;60471;52.150;4.508;2023-05-11T03:42:09;101207.75;;;13.90;82.67
72465;BME280;60471;52.150;4.508;2023-05-11T03:44:39;101208.94;;;13.85;81.98
72465;BME280;60471;52.150;4.508;2023-05-11T03:47:09;101202.00;;;13.82;82.28
72465;BME280;60471;52.150;4.508;2023-05-11T03:49:36;101207.06;;;13.71;82.44
72465;BME280;60471;52.150;4.508;2023-05-11T03:52:04;101205.94;;;13.75;82.74
72465;BME280;60471;52.150;4.508;2023-05-11T03:54:31;101206.19;;;13.86;82.63
72465;BME280;60471;52.150;4.508;2023-05-11T03:56:58;101196.63;;;13.84;82.73
72465;BME280;60471;52.150;4.508;2023-05-11T03:59:24;101195.84;;;13.82;82.53
72465;BME280;60471;52.150;4.508;2023-05-11T04:01:51;101199.00;;;13.88;82.39
72465;BME280;60471;52.150;4.508;2023-05-11T04:04:19;101198.00;;;13.91;82.40
72465;BME280;60471;52.150;4.508;2023-05-11T04:06:46;101192.44;;;13.96;82.28
72465;BME280;60471;52.150;4.508;2023-05-11T04:09:12;101189.69;;;13.97;81.79
72465;BME280;60471;52.150;4.508;2023-05-11T04:11:38;101188.56;;;13.85;81.92
72465;BME280;60471;52.150;4.508;2023-05-11T04:14:05;101182.69;;;13.80;82.27
72465;BME280;60471;52.150;4.508;2023-05-11T04:16:31;101196.19;;;13.91;82.34
72465;BME280;60471;52.150;4.508;2023-05-11T04:18:57;101192.34;;;13.97;81.98
72465;BME280;60471;52.150;4.508;2023-05-11T04:21:23;101189.44;;;14.02;82.01
72465;BME280;60471;52.150;4.508;2023-05-11T04:23:50;101190.03;;;14.07;81.82
72465;BME280;60471;52.150;4.508;2023-05-11T04:26:16;101195.00;;;14.13;81.79
72465;BME280;60471;52.150;4.508;2023-05-11T04:28:42;101201.91;;;14.15;81.43
72465;BME280;60471;52.150;4.508;2023-05-11T04:31:08;101197.47;;;14.16;81.28
72465;BME280;60471;52.150;4.508;2023-05-11T04:33:35;101202.69;;;14.17;81.21
72465;BME280;60471;52.150;4.508;2023-05-11T04:36:01;101206.00;;;14.21;81.26
72465;BME280;60471;52.150;4.508;2023-05-11T04:38:27;101202.06;;;14.28;81.28
72465;BME280;60471;52.150;4.508;2023-05-11T04:40:53;101209.78;;;14.33;81.30
72465;BME280;60471;52.150;4.508;2023-05-11T04:43:19;101208.59;;;14.23;80.94
72465;BME280;60471;52.150;4.508;2023-05-11T04:45:48;101201.03;;;14.31;81.24
72465;BME280;60471;52.150;4.508;2023-05-11T04:48:15;101204.88;;;14.41;81.17
72465;BME280;60471;52.150;4.508;2023-05-11T04:50:41;101209.50;;;14.53;80.61
72465;BME280;60471;52.150;4.508;2023-05-11T04:53:08;101209.91;;;14.61;80.68
72465;BME280;60471;52.150;4.508;2023-05-11T04:55:35;101213.91;;;14.68;80.15
72465;BME280;60471;52.150;4.508;2023-05-11T04:58:01;101212.81;;;14.87;79.64
72465;BME280;60471;52.150;4.508;2023-05-11T05:00:27;101218.06;;;14.88;78.96
72465;BME280;60471;52.150;4.508;2023-05-11T05:02:54;101224.31;;;14.87;78.48
72465;BME280;60471;52.150;4.508;2023-05-11T05:05:20;101224.31;;;14.87;78.46
72465;BME280;60471;52.150;4.508;2023-05-11T05:07:46;101228.50;;;14.91;78.43
72465;BME280;60471;52.150;4.508;2023-05-11T05:10:12;101230.09;;;14.94;78.28
72465;BME280;60471;52.150;4.508;2023-05-11T05:12:38;101220.44;;;15.07;78.04
72465;BME280;60471;52.150;4.508;2023-05-11T05:15:05;101223.50;;;15.15;76.70
72465;BME280;60471;52.150;4.508;2023-05-11T05:17:32;101232.97;;;15.19;76.99
72465;BME280;60471;52.150;4.508;2023-05-11T05:19:58;101232.81;;;15.22;76.72
72465;BME280;60471;52.150;4.508;2023-05-11T05:22:25;101230.81;;;15.26;76.71
72465;BME280;60471;52.150;4.508;2023-05-11T05:24:51;101238.25;;;15.35;76.38
72465;BME280;60471;52.150;4.508;2023-05-11T05:27:17;101233.47;;;15.40;75.28
72465;BME280;60471;52.150;4.508;2023-05-11T05:29:44;101232.72;;;15.24;75.89
72465;BME280;60471;52.150;4.508;2023-05-11T05:32:10;101232.31;;;15.16;76.55
72465;BME280;60471;52.150;4.508;2023-05-11T05:34:36;101245.25;;;15.22;76.07
72465;BME280;60471;52.150;4.508;2023-05-11T05:37:02;101247.06;;;15.21;76.52
72465;BME280;60471;52.150;4.508;2023-05-11T05:39:29;101250.66;;;15.20;76.27
72465;BME280;60471;52.150;4.508;2023-05-11T05:41:55;101244.75;;;15.15;76.17
72465;BME280;60471;52.150;4.508;2023-05-11T05:44:21;101248.28;;;15.30;76.34
72465;BME280;60471;52.150;4.508;2023-05-11T05:46:48;101250.09;;;15.29;76.08
72465;BME280;60471;52.150;4.508;2023-05-11T05:49:14;101253.13;;;15.37;76.19
72465;BME280;60471;52.150;4.508;2023-05-11T05:51:40;101255.03;;;15.50;76.40
72465;BME280;60471;52.150;4.508;2023-05-11T05:54:06;101261.59;;;15.58;75.78
72465;BME280;60471;52.150;4.508;2023-05-11T05:56:33;101265.63;;;15.65;75.08
72465;BME280;60471;52.150;4.508;2023-05-11T05:59:00;101269.34;;;15.63;74.93
72465;BME280;60471;52.150;4.508;2023-05-11T06:01:26;101269.41;;;15.61;74.51
72465;BME280;60471;52.150;4.508;2023-05-11T06:03:53;101279.88;;;15.64;73.81
72465;BME280;60471;52.150;4.508;2023-05-11T06:06:20;101284.03;;;15.54;73.87
72465;BME280;60471;52.150;4.508;2023-05-11T06:08:46;101284.44;;;15.62;74.23
72465;BME280;60471;52.150;4.508;2023-05-11T06:11:12;101280.00;;;15.63;73.32
72465;BME280;60471;52.150;4.508;2023-05-11T06:13:39;101282.59;;;15.49;74.14
72465;BME280;60471;52.150;4.508;2023-05-11T06:16:05;101281.44;;;15.38;74.06
72465;BME280;60471;52.150;4.508;2023-05-11T06:18:31;101291.78;;;15.29;74.90
72465;BME280;60471;52.150;4.508;2023-05-11T06:20:58;101279.81;;;15.22;74.83
72465;BME280;60471;52.150;4.508;2023-05-11T06:23:24;101281.22;;;15.27;75.46
72465;BME280;60471;52.150;4.508;2023-05-11T06:25:50;101285.91;;;15.38;75.86
72465;BME280;60471;52.150;4.508;2023-05-11T06:28:16;101282.41;;;15.52;75.56
72465;BME280;60471;52.150;4.508;2023-05-11T06:30:43;101284.44;;;15.62;75.31
72465;BME280;60471;52.150;4.508;2023-05-11T06:33:09;101282.16;;;15.71;75.33
72465;BME280;60471;52.150;4.508;2023-05-11T06:35:35;101280.72;;;15.79;75.04
72465;BME280;60471;52.150;4.508;2023-05-11T06:38:02;101276.84;;;15.85;74.99
72465;BME280;60471;52.150;4.508;2023-05-11T06:40:28;101285.56;;;16.01;75.16
72465;BME280;60471;52.150;4.508;2023-05-11T06:42:54;101288.50;;;16.11;74.45
72465;BME280;60471;52.150;4.508;2023-05-11T06:45:21;101289.63;;;16.21;74.63
72465;BME280;60471;52.150;4.508;2023-05-11T06:47:47;101285.69;;;16.27;74.44
72465;BME280;60471;52.150;4.508;2023-05-11T06:50:13;101286.88;;;16.08;74.59
72465;BME280;60471;52.150;4.508;2023-05-11T06:52:39;101289.81;;;16.18;74.89
72465;BME280;60471;52.150;4.508;2023-05-11T06:55:06;101294.56;;;16.13;74.27
72465;BME280;60471;52.150;4.508;2023-05-11T06:57:32;101294.53;;;16.27;74.25
72465;BME280;60471;52.150;4.508;2023-05-11T06:59:59;101288.50;;;16.38;73.20
72465;BME280;60471;52.150;4.508;2023-05-11T07:02:25;101289.94;;;16.43;72.27
72465;BME280;60471;52.150;4.508;2023-05-11T07:04:51;101292.00;;;16.52;71.34
72465;BME280;60471;52.150;4.508;2023-05-11T07:07:17;101291.25;;;16.50;70.54
72465;BME280;60471;52.150;4.508;2023-05-11T07:09:43;101293.00;;;16.64;70.27
72465;BME280;60471;52.150;4.508;2023-05-11T07:12:10;101298.91;;;16.69;70.04
72465;BME280;60471;52.150;4.508;2023-05-11T07:14:36;101299.50;;;16.87;70.77
72465;BME280;60471;52.150;4.508;2023-05-11T07:17:03;101306.78;;;16.71;71.44
72465;BME280;60471;52.150;4.508;2023-05-11T07:19:29;101297.09;;;16.70;70.93
72465;BME280;60471;52.150;4.508;2023-05-11T07:21:55;101296.53;;;16.65;70.04
72465;BME280;60471;52.150;4.508;2023-05-11T07:24:21;101304.91;;;16.73;70.55
72465;BME280;60471;52.150;4.508;2023-05-11T07:26:48;101304.13;;;16.71;70.74
72465;BME280;60471;52.150;4.508;2023-05-11T07:29:15;101307.84;;;16.95;70.21
72465;BME280;60471;52.150;4.508;2023-05-11T07:31:41;101304.22;;;16.96;69.40
72465;BME280;60471;52.150;4.508;2023-05-11T07:34:08;101304.22;;;16.96;70.10
72465;BME280;60471;52.150;4.508;2023-05-11T07:36:34;101303.69;;;17.04;69.21
72465;BME280;60471;52.150;4.508;2023-05-11T07:39:01;101298.28;;;17.05;69.11
72465;BME280;60471;52.150;4.508;2023-05-11T07:41:27;101308.00;;;17.45;69.10
72465;BME280;60471;52.150;4.508;2023-05-11T07:43:54;101304.81;;;17.52;68.44
72465;BME280;60471;52.150;4.508;2023-05-11T07:46:20;101308.00;;;17.57;67.76
72465;BME280;60471;52.150;4.508;2023-05-11T07:48:46;101304.94;;;17.63;66.79
72465;BME280;60471;52.150;4.508;2023-05-11T07:51:12;101310.69;;;17.45;67.30
72465;BME280;60471;52.150;4.508;2023-05-11T07:53:39;101311.00;;;17.27;67.87
72465;BME280;60471;52.150;4.508;2023-05-11T07:56:05;101312.88;;;17.25;68.62
72465;BME280;60471;52.150;4.508;2023-05-11T07:58:32;101314.31;;;17.56;67.88
72465;BME280;60471;52.150;4.508;2023-05-11T08:00:58;101311.00;;;17.53;66.95
72465;BME280;60471;52.150;4.508;2023-05-11T08:03:24;101322.19;;;17.58;67.28
72465;BME280;60471;52.150;4.508;2023-05-11T08:05:50;101318.38;;;17.62;66.80
72465;BME280;60471;52.150;4.508;2023-05-11T08:08:17;101319.28;;;17.23;66.28
72465;BME280;60471;52.150;4.508;2023-05-11T08:10:43;101316.47;;;17.38;66.23
72465;BME280;60471;52.150;4.508;2023-05-11T08:13:09;101320.84;;;17.52;65.98
72465;BME280;60471;52.150;4.508;2023-05-11T08:15:35;101315.41;;;17.79;64.90
72465;BME280;60471;52.150;4.508;2023-05-11T08:18:02;101324.44;;;18.15;65.08
72465;BME280;60471;52.150;4.508;2023-05-11T08:20:28;101307.97;;;18.45;64.30
72465;BME280;60471;52.150;4.508;2023-05-11T08:22:55;101306.63;;;19.11;62.98
72465;BME280;60471;52.150;4.508;2023-05-11T08:25:21;101309.97;;;19.37;60.79
72465;BME280;60471;52.150;4.508;2023-05-11T08:27:47;101310.19;;;19.23;60.53
72465;BME280;60471;52.150;4.508;2023-05-11T08:30:13;101321.22;;;19.18;60.78
72465;BME280;60471;52.150;4.508;2023-05-11T08:32:40;101321.06;;;19.32;60.57
72465;BME280;60471;52.150;4.508;2023-05-11T08:35:07;101315.56;;;19.23;61.54
72465;BME280;60471;52.150;4.508;2023-05-11T08:37:33;101318.59;;;19.29;61.09
72465;BME280;60471;52.150;4.508;2023-05-11T08:40:00;101319.63;;;19.04;62.66
72465;BME280;60471;52.150;4.508;2023-05-11T08:42:28;101316.53;;;19.22;62.61
72465;BME280;60471;52.150;4.508;2023-05-11T08:44:58;101322.53;;;19.01;62.97
72465;BME280;60471;52.150;4.508;2023-05-11T08:47:26;101322.03;;;19.07;61.98
72465;BME280;60471;52.150;4.508;2023-05-11T08:49:53;101316.06;;;19.50;60.51
72465;BME280;60471;52.150;4.508;2023-05-11T08:52:19;101323.44;;;19.82;59.07
72465;BME280;60471;52.150;4.508;2023-05-11T08:54:46;101321.88;;;19.79;60.90
72465;BME280;60471;52.150;4.508;2023-05-11T08:57:13;101318.59;;;19.87;60.68
72465;BME280;60471;52.150;4.508;2023-05-11T08:59:40;101320.63;;;20.28;59.25
72465;BME280;60471;52.150;4.508;2023-05-11T09:02:15;101322.41;;;20.39;57.78
72465;BME280;60471;52.150;4.508;2023-05-11T09:04:45;101319.13;;;20.58;57.71
72465;BME280;60471;52.150;4.508;2023-05-11T09:07:14;101319.16;;;21.10;56.95
72465;BME280;60471;52.150;4.508;2023-05-11T09:09:45;101318.81;;;21.04;56.39
72465;BME280;60471;52.150;4.508;2023-05-11T09:12:12;101320.03;;;20.79;56.20
72465;BME280;60471;52.150;4.508;2023-05-11T09:14:39;101320.22;;;20.66;56.20
72465;BME280;60471;52.150;4.508;2023-05-11T09:17:05;101321.44;;;20.51;56.61
72465;BME280;60471;52.150;4.508;2023-05-11T09:19:31;101319.66;;;20.51;56.53
72465;BME280;60471;52.150;4.508;2023-05-11T09:21:58;101318.09;;;20.04;58.16
72465;BME280;60471;52.150;4.508;2023-05-11T09:24:25;101319.91;;;20.15;57.44
72465;BME280;60471;52.150;4.508;2023-05-11T09:27:08;101313.78;;;20.46;56.89
72465;BME280;60471;52.150;4.508;2023-05-11T09:29:35;101314.22;;;20.95;55.64
72465;BME280;60471;52.150;4.508;2023-05-11T09:32:01;101312.78;;;20.91;56.02
72465;BME280;60471;52.150;4.508;2023-05-11T09:34:27;101309.84;;;21.26;55.52
72465;BME280;60471;52.150;4.508;2023-05-11T09:36:54;101319.88;;;21.75;54.94
72465;BME280;60471;52.150;4.508;2023-05-11T09:39:32;101308.78;;;21.89;52.26
72465;BME280;60471;52.150;4.508;2023-05-11T09:42:18;101310.94;;;21.95;52.36
72465;BME280;60471;52.150;4.508;2023-05-11T09:44:47;101312.97;;;22.53;49.73
72465;BME280;60471;52.150;4.508;2023-05-11T09:47:18;101304.75;;;22.64;50.26
72465;BME280;60471;52.150;4.508;2023-05-11T09:49:47;101307.22;;;22.87;50.04
72465;BME280;60471;52.150;4.508;2023-05-11T09:52:17;101306.50;;;22.94;48.91
72465;BME280;60471;52.150;4.508;2023-05-11T09:54:46;101307.53;;;22.34;50.31
72465;BME280;60471;52.150;4.508;2023-05-11T09:57:27;101318.56;;;21.39;53.93
72465;BME280;60471;52.150;4.508;2023-05-11T09:59:59;101311.22;;;21.41;53.79
72465;BME280;60471;52.150;4.508;2023-05-11T10:02:30;101317.50;;;21.51;54.02
72465;BME280;60471;52.150;4.508;2023-05-11T10:04:58;101311.50;;;22.30;53.25
72465;BME280;60471;52.150;4.508;2023-05-11T10:07:30;101309.56;;;22.61;51.10
72465;BME280;60471;52.150;4.508;2023-05-11T10:10:04;101314.97;;;22.70;51.02
72465;BME280;60471;52.150;4.508;2023-05-11T10:12:33;101311.84;;;22.75;50.08
72465;BME280;60471;52.150;4.508;2023-05-11T10:15:04;101312.50;;;22.38;51.97
72465;BME280;60471;52.150;4.508;2023-05-11T10:17:32;101320.94;;;21.84;51.90
72465;BME280;60471;52.150;4.508;2023-05-11T10:20:00;101309.03;;;22.07;52.16
72465;BME280;60471;52.150;4.508;2023-05-11T10:22:28;101316.88;;;21.68;53.99
72465;BME280;60471;52.150;4.508;2023-05-11T10:24:58;101307.75;;;21.29;53.36
72465;BME280;60471;52.150;4.508;2023-05-11T10:27:25;101307.06;;;20.63;55.96
72465;BME280;60471;52.150;4.508;2023-05-11T10:29:51;101312.09;;;20.45;55.81
72465;BME280;60471;52.150;4.508;2023-05-11T10:32:19;101317.44;;;20.34;56.13
72465;BME280;60471;52.150;4.508;2023-05-11T10:34:47;101319.06;;;20.14;57.00
72465;BME280;60471;52.150;4.508;2023-05-11T10:37:15;101324.53;;;19.68;57.82
72465;BME280;60471;52.150;4.508;2023-05-11T10:39:44;101317.72;;;19.29;58.83
72465;BME280;60471;52.150;4.508;2023-05-11T10:47:54;101320.31;;;17.85;63.46
72465;BME280;60471;52.150;4.508;2023-05-11T10:51:25;101323.38;;;17.41;66.52
72465;BME280;60471;52.150;4.508;2023-05-11T10:54:36;101328.72;;;16.89;68.54
72465;BME280;60471;52.150;4.508;2023-05-11T11:03:20;101327.78;;;16.48;70.75
72465;BME280;60471;52.150;4.508;2023-05-11T11:05:46;101331.22;;;16.50;71.07
72465;BME280;60471;52.150;4.508;2023-05-11T11:08:13;101328.88;;;16.59;70.67
72465;BME280;60471;52.150;4.508;2023-05-11T11:10:40;101325.34;;;16.99;68.76
72465;BME280;60471;52.150;4.508;2023-05-11T11:13:13;101326.78;;;16.91;68.44
72465;BME280;60471;52.150;4.508;2023-05-11T11:18:25;101332.66;;;16.83;69.06
72465;BME280;60471;52.150;4.508;2023-05-11T11:20:57;101336.47;;;17.06;69.03
72465;BME280;60471;52.150;4.508;2023-05-11T11:26:06;101324.34;;;17.40;67.65
72465;BME280;60471;52.150;4.508;2023-05-11T11:31:22;101326.91;;;17.67;66.15
72465;BME280;60471;52.150;4.508;2023-05-11T11:33:53;101343.13;;;17.64;66.98
72465;BME280;60471;52.150;4.508;2023-05-11T11:39:21;101339.38;;;17.41;67.70
72465;BME280;60471;52.150;4.508;2023-05-11T11:42:00;101353.56;;;17.16;69.25
72465;BME280;60471;52.150;4.508;2023-05-11T11:44:35;101351.41;;;17.21;69.02
72465;BME280;60471;52.150;4.508;2023-05-11T11:49:50;101352.22;;;16.96;69.30
72465;BME280;60471;52.150;4.508;2023-05-11T11:54:57;101352.13;;;17.10;68.03
72465;BME280;60471;52.150;4.508;2023-05-11T11:57:45;101356.38;;;17.00;67.87
72465;BME280;60471;52.150;4.508;2023-05-11T12:00:19;101353.72;;;16.73;69.15
72465;BME280;60471;52.150;4.508;2023-05-11T12:02:46;101351.06;;;16.59;69.47
72465;BME280;60471;52.150;4.508;2023-05-11T12:05:17;101346.47;;;16.75;69.39
72465;BME280;60471;52.150;4.508;2023-05-11T12:07:46;101349.84;;;16.50;69.63
72465;BME280;60471;52.150;4.508;2023-05-11T12:10:15;101348.56;;;16.29;70.70
72465;BME280;60471;52.150;4.508;2023-05-11T12:12:47;101344.56;;;16.77;68.63
72465;BME280;60471;52.150;4.508;2023-05-11T12:15:24;101343.59;;;16.78;69.54
72465;BME280;60471;52.150;4.508;2023-05-11T12:17:51;101352.25;;;16.82;69.00
72465;BME280;60471;52.150;4.508;2023-05-11T12:20:19;101347.50;;;17.00;68.54
72465;BME280;60471;52.150;4.508;2023-05-11T12:22:47;101351.72;;;16.63;69.32
72465;BME280;60471;52.150;4.508;2023-05-11T12:25:15;101350.09;;;16.74;70.13
72465;BME280;60471;52.150;4.508;2023-05-11T12:27:50;101345.31;;;16.79;69.31
72465;BME280;60471;52.150;4.508;2023-05-11T12:30:27;101345.72;;;16.73;69.71
72465;BME280;60471;52.150;4.508;2023-05-11T12:32:58;101344.50;;;16.92;69.28
72465;BME280;60471;52.150;4.508;2023-05-11T12:35:27;101352.13;;;17.10;68.36
72465;BME280;60471;52.150;4.508;2023-05-11T12:37:56;101353.34;;;17.32;68.65
72465;BME280;60471;52.150;4.508;2023-05-11T12:40:23;101350.34;;;17.36;66.95
72465;BME280;60471;52.150;4.508;2023-05-11T12:45:26;101359.84;;;17.93;64.02
72465;BME280;60471;52.150;4.508;2023-05-11T12:47:54;101359.84;;;17.93;64.08
72465;BME280;60471;52.150;4.508;2023-05-11T12:50:22;101353.66;;;17.92;64.24
72465;BME280;60471;52.150;4.508;2023-05-11T12:52:48;101345.28;;;17.97;64.13
72465;BME280;60471;52.150;4.508;2023-05-11T12:55:27;101339.22;;;17.95;64.18
72465;BME280;60471;52.150;4.508;2023-05-11T12:58:14;101342.31;;;17.76;64.92
72465;BME280;60471;52.150;4.508;2023-05-11T13:01:09;101347.88;;;17.86;65.57
72465;BME280;60471;52.150;4.508;2023-05-11T13:03:36;101351.91;;;17.79;66.94
72465;BME280;60471;52.150;4.508;2023-05-11T13:06:06;101349.59;;;17.74;67.83
72465;BME280;60471;52.150;4.508;2023-05-11T13:08:36;101347.03;;;17.73;67.90
72465;BME280;60471;52.150;4.508;2023-05-11T13:13:48;101354.16;;;17.85;66.59
72465;BME280;60471;52.150;4.508;2023-05-11T13:16:28;101344.69;;;17.81;67.04
72465;BME280;60471;52.150;4.508;2023-05-11T13:21:28;101350.09;;;17.79;66.21
72465;BME280;60471;52.150;4.508;2023-05-11T13:23:55;101346.91;;;17.74;67.24
72465;BME280;60471;52.150;4.508;2023-05-11T13:26:23;101351.41;;;17.74;67.57
72465;BME280;60471;52.150;4.508;2023-05-11T13:28:56;101348.94;;;17.71;67.70
72465;BME280;60471;52.150;4.508;2023-05-11T13:31:22;101353.84;;;17.77;68.47
72465;BME280;60471;52.150;4.508;2023-05-11T13:33:49;101361.25;;;17.33;69.88
72465;BME280;60471;52.150;4.508;2023-05-11T13:36:17;101359.06;;;17.13;70.51
72465;BME280;60471;52.150;4.508;2023-05-11T13:38:44;101361.81;;;16.99;70.89
72465;BME280;60471;52.150;4.508;2023-05-11T13:41:10;101368.00;;;16.99;70.54
72465;BME280;60471;52.150;4.508;2023-05-11T13:43:36;101359.78;;;17.02;69.56
72465;BME280;60471;52.150;4.508;2023-05-11T13:46:03;101363.00;;;16.80;69.56